Balaguer, Spain
Current Conditions -  °F | °C
As of 9:00 AM on Saturday 25 Oct 2014 (Local Time) from LERS Reporting Station
Clear Clear  
Wind Chill: 59°   Ceiling: Unl
Heat Index: 59°   Visibility: 6mi
Dew Point: 48°   Wind: 3mph
Humidity: 67%   Direction: 20°NNE
Pressure: 30.09"   Gusts: NA
Location:  41.79°N, 0.81°E
Report Text: LERS 250700Z 02003KT 330V060 CAVOK 15/09 Q1019
Loading
Personal Weather Stations






























Interactive Weather Map
Tropical Storm Tracking
New forecast layout! Learn more

10-Day Weather Forecast

Advertisements
Track Severe Weather on mobile